createdAt,value
2018-06-08T00:02:15.578Z,22.00
2018-06-08T00:04:43.886Z,21.90
2018-06-08T00:07:12.254Z,21.90
2018-06-08T00:09:40.542Z,21.90
2018-06-08T00:12:08.863Z,22.00
2018-06-08T00:14:37.203Z,22.00
2018-06-08T00:17:05.729Z,21.90
2018-06-08T00:19:34.049Z,21.80
2018-06-08T00:22:02.369Z,21.70
2018-06-08T00:24:30.732Z,21.50
2018-06-08T00:26:59.061Z,21.60
2018-06-08T00:29:27.375Z,21.70
2018-06-08T00:31:55.848Z,21.60
2018-06-08T00:34:24.225Z,21.60
2018-06-08T00:36:52.565Z,21.60
2018-06-08T00:39:20.947Z,21.60
2018-06-08T00:41:49.307Z,21.40
2018-06-08T00:46:45.697Z,21.20
2018-06-08T00:49:14.129Z,21.10
2018-06-08T00:51:42.425Z,21.00
2018-06-08T00:54:10.764Z,21.00
2018-06-08T00:56:50.475Z,21.00
2018-06-08T00:59:18.785Z,20.90
2018-06-08T01:01:47.115Z,20.80
2018-06-08T01:06:43.511Z,20.80
2018-06-08T01:09:11.825Z,20.70
2018-06-08T01:11:40.191Z,20.70
2018-06-08T01:14:08.514Z,20.70
2018-06-08T01:16:36.857Z,20.70
2018-06-08T01:19:05.240Z,20.70
2018-06-08T01:21:33.568Z,20.70
2018-06-08T01:24:01.924Z,20.50
2018-06-08T01:26:30.256Z,20.50
2018-06-08T01:31:26.688Z,20.40
2018-06-08T01:33:55.039Z,20.30
2018-06-08T01:36:23.413Z,20.30
2018-06-08T01:38:51.753Z,20.30
2018-06-08T01:41:20.097Z,20.30
2018-06-08T01:43:48.455Z,20.30
2018-06-08T01:46:16.781Z,20.40
2018-06-08T01:48:45.142Z,20.40
2018-06-08T01:51:15.189Z,20.40
2018-06-08T01:53:43.614Z,20.30
2018-06-08T01:56:11.953Z,20.20
2018-06-08T01:58:40.287Z,20.10
2018-06-08T02:01:08.615Z,20.10
2018-06-08T02:03:37.153Z,20.20
2018-06-08T02:06:05.483Z,20.20
2018-06-08T02:08:33.809Z,20.00
2018-06-08T02:11:02.121Z,20.00
2018-06-08T02:13:30.474Z,20.00
2018-06-08T02:15:58.963Z,19.90
2018-06-08T02:18:27.306Z,19.70
2018-06-08T02:20:55.617Z,19.60
2018-06-08T02:23:23.984Z,19.60
2018-06-08T02:25:52.501Z,19.40
2018-06-08T02:28:20.836Z,19.20
2018-06-08T02:30:49.111Z,19.20
2018-06-08T02:33:17.463Z,19.30
2018-06-08T02:35:45.813Z,19.30
2018-06-08T02:38:14.193Z,19.30
2018-06-08T02:40:42.520Z,19.30
2018-06-08T02:43:10.852Z,19.30
2018-06-08T02:45:39.224Z,19.30
2018-06-08T02:48:07.584Z,19.40
2018-06-08T02:50:35.903Z,19.40
2018-06-08T02:53:04.246Z,19.40
2018-06-08T02:55:32.559Z,19.40
2018-06-08T02:58:00.906Z,19.40
2018-06-08T03:00:29.186Z,19.40
2018-06-08T03:02:57.584Z,19.40
2018-06-08T03:05:25.955Z,19.30
2018-06-08T03:07:54.320Z,19.30
2018-06-08T03:10:22.642Z,19.30
2018-06-08T03:12:50.972Z,19.30
2018-06-08T03:15:19.296Z,19.20
2018-06-08T03:17:47.676Z,19.20
2018-06-08T03:20:16.002Z,19.20
2018-06-08T03:22:44.333Z,19.20
2018-06-08T03:25:12.702Z,19.20
2018-06-08T03:27:41.024Z,19.30
2018-06-08T03:30:09.396Z,19.30
2018-06-08T03:32:37.697Z,19.30
2018-06-08T03:35:06.865Z,19.30
2018-06-08T03:37:35.195Z,19.30
2018-06-08T03:40:03.514Z,19.30
2018-06-08T03:42:31.808Z,19.30
2018-06-08T03:45:00.190Z,19.30
2018-06-08T03:47:28.537Z,19.30
2018-06-08T03:49:56.900Z,19.20
2018-06-08T03:52:25.218Z,19.10
2018-06-08T03:54:53.529Z,18.90
2018-06-08T03:57:21.834Z,18.90
2018-06-08T03:59:50.128Z,19.00
2018-06-08T04:04:46.530Z,19.10
2018-06-08T04:07:14.898Z,18.90
2018-06-08T04:09:43.259Z,18.80
2018-06-08T04:12:11.628Z,18.70
2018-06-08T04:14:40.006Z,18.70
2018-06-08T04:17:08.339Z,18.80
2018-06-08T04:19:36.659Z,18.80
2018-06-08T04:22:05.045Z,18.80
2018-06-08T04:24:33.410Z,18.90
2018-06-08T04:27:01.759Z,19.10
2018-06-08T04:29:30.077Z,19.00
2018-06-08T04:31:58.391Z,19.10
2018-06-08T04:34:26.705Z,19.10
2018-06-08T04:36:55.073Z,19.10
2018-06-08T04:39:23.401Z,19.10
2018-06-08T04:41:51.792Z,19.10
2018-06-08T04:44:20.115Z,19.10
2018-06-08T04:46:48.426Z,19.10
2018-06-08T04:49:16.768Z,19.20
2018-06-08T04:51:45.215Z,19.30
2018-06-08T04:54:13.939Z,19.30
2018-06-08T04:56:42.274Z,19.40
2018-06-08T04:59:10.628Z,19.50
2018-06-08T05:01:38.988Z,19.50
2018-06-08T05:04:07.308Z,19.50
2018-06-08T05:06:35.622Z,19.60
2018-06-08T05:09:04.953Z,19.60
2018-06-08T05:11:33.249Z,19.60
2018-06-08T05:14:01.591Z,19.70
2018-06-08T05:16:29.948Z,19.70
2018-06-08T05:18:58.307Z,19.70
2018-06-08T05:21:26.608Z,19.70
2018-06-08T05:23:54.964Z,19.80
2018-06-08T05:26:23.284Z,19.80
2018-06-08T05:28:51.589Z,20.00
2018-06-08T05:31:22.377Z,20.00
2018-06-08T05:33:50.678Z,20.00
2018-06-08T05:36:19.118Z,20.00
2018-06-08T05:43:43.591Z,20.20
2018-06-08T05:46:11.930Z,20.20
2018-06-08T05:48:40.244Z,20.20
2018-06-08T05:51:08.567Z,20.40
2018-06-08T05:53:36.876Z,20.40
2018-06-08T05:58:33.412Z,20.60
2018-06-08T06:01:01.732Z,20.60
2018-06-08T06:03:30.083Z,20.70
2018-06-08T06:05:58.386Z,20.80
2018-06-08T06:08:26.712Z,20.90
2018-06-08T06:10:55.059Z,21.00
2018-06-08T06:13:23.365Z,21.10
2018-06-08T06:15:51.703Z,21.10
2018-06-08T06:18:20.018Z,21.20
2018-06-08T06:20:48.378Z,21.30
2018-06-08T06:23:16.712Z,21.30
2018-06-08T06:25:45.070Z,21.40
2018-06-08T06:28:13.389Z,21.50
2018-06-08T06:30:41.745Z,21.60
2018-06-08T06:33:10.068Z,21.70
2018-06-08T06:35:38.441Z,21.70
2018-06-08T06:38:06.741Z,21.80
2018-06-08T06:40:35.149Z,21.80
2018-06-08T06:43:03.553Z,21.90
2018-06-08T06:45:31.881Z,22.00
2018-06-08T06:48:00.218Z,22.00
2018-06-08T06:50:28.555Z,22.10
2018-06-08T06:52:56.859Z,22.20
2018-06-08T06:55:25.226Z,22.20
2018-06-08T06:57:53.540Z,22.30
2018-06-08T07:00:21.855Z,22.40
2018-06-08T07:02:50.231Z,22.40
2018-06-08T07:05:18.569Z,22.50
2018-06-08T07:07:46.915Z,22.60
2018-06-08T07:10:15.299Z,22.70
2018-06-08T07:12:43.656Z,22.70
2018-06-08T07:15:12.047Z,22.70
2018-06-08T07:17:40.460Z,22.70
2018-06-08T07:20:08.811Z,22.80
2018-06-08T07:22:37.129Z,22.90
2018-06-08T07:25:05.472Z,22.90
2018-06-08T07:27:33.853Z,23.00
2018-06-08T07:30:02.210Z,23.00
2018-06-08T07:32:30.537Z,23.10
2018-06-08T07:34:58.873Z,23.10
2018-06-08T07:37:27.229Z,23.20
2018-06-08T07:39:55.595Z,23.20
2018-06-08T07:42:23.911Z,23.30
2018-06-08T07:44:52.315Z,23.40
2018-06-08T07:47:20.656Z,23.50
2018-06-08T07:49:48.977Z,23.50
2018-06-08T07:52:17.329Z,23.50
2018-06-08T07:54:45.644Z,23.70
2018-06-08T07:57:13.995Z,23.80
2018-06-08T07:59:42.384Z,23.80
2018-06-08T08:02:10.767Z,23.90
2018-06-08T08:04:39.107Z,24.00
2018-06-08T08:07:07.457Z,24.00
2018-06-08T08:09:35.758Z,24.10
2018-06-08T08:12:04.147Z,24.10
2018-06-08T08:14:32.490Z,24.10
2018-06-08T08:17:00.868Z,24.20
2018-06-08T08:19:29.195Z,24.30
2018-06-08T08:21:57.623Z,24.30
2018-06-08T08:24:25.936Z,24.40
2018-06-08T08:26:54.286Z,24.50
2018-06-08T08:29:22.813Z,24.60
2018-06-08T08:31:51.177Z,24.70
2018-06-08T08:34:19.562Z,24.70
2018-06-08T08:36:47.877Z,24.80
2018-06-08T08:39:16.267Z,24.80
2018-06-08T08:44:12.755Z,25.00
2018-06-08T08:46:41.097Z,25.10
2018-06-08T08:49:09.619Z,25.10
2018-06-08T08:51:38.001Z,25.10
2018-06-08T08:54:06.361Z,25.30
2018-06-08T08:56:34.700Z,25.20
2018-06-08T08:59:03.019Z,25.30
2018-06-08T09:01:31.363Z,25.30
2018-06-08T09:03:59.707Z,25.40
2018-06-08T09:06:28.039Z,25.40
2018-06-08T09:08:56.739Z,25.60
2018-06-08T09:11:25.077Z,25.60
2018-06-08T09:13:53.423Z,25.70
2018-06-08T09:16:21.811Z,25.80
2018-06-08T09:18:50.184Z,25.80
2018-06-08T09:21:18.545Z,25.80
2018-06-08T09:23:46.912Z,25.80
2018-06-08T09:26:15.322Z,25.90
2018-06-08T09:28:43.647Z,25.90
2018-06-08T09:31:11.983Z,26.00
2018-06-08T09:33:40.352Z,25.90
2018-06-08T09:36:08.659Z,26.00
2018-06-08T09:38:36.991Z,26.10
2018-06-08T09:41:05.349Z,26.10
2018-06-08T09:43:33.673Z,26.20
2018-06-08T09:48:30.252Z,26.30
2018-06-08T09:50:58.591Z,26.30
2018-06-08T09:53:26.970Z,26.30
2018-06-08T09:55:55.366Z,26.40
2018-06-08T09:58:23.695Z,26.50
2018-06-08T10:00:52.053Z,26.50
2018-06-08T10:03:20.410Z,26.60
2018-06-08T10:05:48.755Z,26.60
2018-06-08T10:08:17.061Z,26.70
2018-06-08T10:10:45.425Z,26.70
2018-06-08T10:13:13.819Z,26.70
2018-06-08T10:15:42.170Z,26.70
2018-06-08T10:18:10.544Z,26.80
2018-06-08T10:20:38.879Z,26.90
2018-06-08T10:23:07.277Z,27.00
2018-06-08T10:25:35.683Z,26.90
2018-06-08T10:28:03.991Z,26.90
2018-06-08T10:30:32.337Z,26.80
2018-06-08T10:33:00.663Z,26.50
2018-06-08T10:35:29.032Z,26.60
2018-06-08T10:37:57.418Z,26.70
2018-06-08T10:40:25.725Z,26.70
2018-06-08T10:42:54.089Z,26.90
2018-06-08T10:45:22.431Z,27.00
2018-06-08T10:47:50.768Z,27.20
2018-06-08T10:50:19.085Z,27.30
2018-06-08T10:52:47.425Z,27.40
2018-06-08T10:55:15.763Z,27.30
2018-06-08T10:57:44.086Z,27.40
2018-06-08T11:00:12.455Z,27.60
2018-06-08T11:02:40.766Z,27.60
2018-06-08T11:05:09.109Z,27.60
2018-06-08T11:07:37.493Z,27.50
2018-06-08T11:12:33.963Z,27.70
2018-06-08T11:15:02.309Z,27.80
2018-06-08T11:17:30.684Z,27.80
2018-06-08T11:19:59.005Z,27.80
2018-06-08T11:22:27.369Z,27.80
2018-06-08T11:24:55.693Z,27.60
2018-06-08T11:27:24.031Z,27.50
2018-06-08T11:29:52.433Z,27.60
2018-06-08T11:32:21.001Z,27.60
2018-06-08T11:34:49.363Z,27.60
2018-06-08T11:39:45.787Z,27.60
2018-06-08T11:42:14.191Z,27.50
2018-06-08T11:47:10.626Z,27.30
2018-06-08T11:49:38.953Z,27.40
2018-06-08T11:52:07.310Z,27.20
2018-06-08T11:54:35.697Z,27.10
2018-06-08T11:57:04.061Z,27.10
2018-06-08T11:59:32.427Z,27.20
2018-06-08T12:02:00.805Z,27.40
2018-06-08T12:04:29.179Z,27.40
2018-06-08T12:06:57.523Z,27.60
2018-06-08T12:09:25.853Z,27.60
2018-06-08T12:11:54.167Z,27.40
2018-06-08T12:14:22.527Z,27.50
2018-06-08T12:16:50.866Z,27.50
2018-06-08T12:19:19.233Z,27.70
2018-06-08T12:21:47.539Z,27.70
2018-06-08T12:24:15.917Z,28.00
2018-06-08T12:26:44.258Z,28.20
2018-06-08T12:29:12.639Z,28.30
2018-06-08T12:31:41.005Z,28.30
2018-06-08T12:34:09.379Z,28.20
2018-06-08T12:36:37.809Z,28.30
2018-06-08T12:39:07.487Z,28.40
2018-06-08T12:41:36.280Z,28.20
2018-06-08T12:44:04.619Z,28.40
2018-06-08T12:46:33.046Z,28.30
2018-06-08T12:49:01.451Z,28.70
2018-06-08T12:51:29.759Z,29.10
2018-06-08T12:53:58.113Z,29.10
2018-06-08T12:56:26.533Z,29.10
2018-06-08T12:58:54.881Z,29.00
2018-06-08T13:01:23.245Z,28.60
2018-06-08T13:03:51.558Z,28.30
2018-06-08T13:06:19.942Z,28.30
2018-06-08T13:08:48.287Z,28.70
2018-06-08T13:11:16.655Z,28.80
2018-06-08T13:13:45.415Z,29.00
2018-06-08T13:16:13.914Z,29.10
2018-06-08T13:18:42.292Z,28.90
2018-06-08T13:21:10.665Z,29.10
2018-06-08T13:23:38.988Z,29.20
2018-06-08T13:26:07.327Z,28.70
2018-06-08T13:28:35.669Z,28.80
2018-06-08T13:31:04.021Z,28.70
2018-06-08T13:33:32.451Z,28.70
2018-06-08T13:36:00.777Z,29.10
2018-06-08T13:38:29.110Z,29.30
2018-06-08T13:43:25.575Z,29.30
2018-06-08T13:45:53.901Z,29.30
2018-06-08T13:50:50.499Z,29.00
2018-06-08T13:53:18.847Z,28.90
2018-06-08T13:55:47.210Z,28.80
2018-06-08T13:58:15.669Z,28.70
2018-06-08T14:00:44.081Z,28.80
2018-06-08T14:03:12.465Z,28.70
2018-06-08T14:08:09.032Z,28.70
2018-06-08T14:10:37.439Z,28.90
2018-06-08T14:13:05.786Z,28.90
2018-06-08T14:15:34.120Z,29.00
2018-06-08T14:18:02.491Z,29.20
2018-06-08T14:20:30.882Z,29.30
2018-06-08T14:22:59.266Z,29.50
2018-06-08T14:25:27.670Z,29.50
2018-06-08T14:27:56.054Z,29.80
2018-06-08T14:30:24.438Z,29.50
2018-06-08T14:32:52.813Z,29.40
2018-06-08T14:35:21.159Z,29.30
2018-06-08T14:37:49.562Z,29.20
2018-06-08T14:40:17.943Z,28.70
2018-06-08T14:42:46.294Z,28.50
2018-06-08T14:45:14.684Z,28.20
2018-06-08T14:47:43.129Z,28.10
2018-06-08T14:50:11.435Z,28.00
2018-06-08T14:52:39.782Z,28.00
2018-06-08T14:55:08.190Z,27.90
2018-06-08T14:57:36.596Z,27.70
2018-06-08T15:00:05.562Z,27.70
2018-06-08T15:02:33.906Z,27.70
2018-06-08T15:05:02.266Z,27.60
2018-06-08T15:07:31.079Z,27.50
2018-06-08T15:09:59.393Z,27.40
2018-06-08T15:14:55.815Z,27.30
2018-06-08T15:17:24.125Z,27.10
2018-06-08T15:19:52.453Z,27.10
2018-06-08T15:22:20.737Z,27.00
2018-06-08T15:24:49.144Z,26.90
2018-06-08T15:27:17.589Z,26.90
2018-06-08T15:29:45.916Z,26.80
2018-06-08T15:32:14.264Z,26.80
2018-06-08T15:34:42.631Z,26.70
2018-06-08T15:37:11.014Z,26.60
2018-06-08T15:39:39.385Z,26.50
2018-06-08T15:42:07.725Z,26.60
2018-06-08T15:44:36.084Z,26.50
2018-06-08T15:52:00.574Z,26.30
2018-06-08T15:54:28.985Z,26.30
2018-06-08T15:56:57.373Z,26.30
2018-06-08T15:59:25.687Z,26.20
2018-06-08T16:01:54.093Z,26.10
2018-06-08T16:04:22.444Z,26.10
2018-06-08T16:06:50.777Z,25.90
2018-06-08T16:09:19.123Z,25.80
2018-06-08T16:11:48.353Z,25.70
2018-06-08T16:16:44.724Z,25.40
2018-06-08T16:19:13.093Z,25.30
2018-06-08T16:21:41.433Z,25.10
2018-06-08T16:24:09.774Z,25.10
2018-06-08T16:26:38.105Z,25.20
2018-06-08T16:29:06.474Z,25.10
2018-06-08T16:34:02.900Z,25.00
2018-06-08T16:36:31.209Z,25.00
2018-06-08T16:38:59.523Z,24.90
2018-06-08T16:41:27.839Z,24.90
2018-06-08T16:43:56.228Z,24.70
2018-06-08T16:46:24.563Z,24.60
2018-06-08T16:48:52.853Z,24.50
2018-06-08T16:51:21.250Z,24.30
2018-06-08T16:53:49.594Z,24.40
2018-06-08T16:56:17.909Z,24.40
2018-06-08T16:58:46.293Z,24.40
2018-06-08T17:01:14.684Z,24.40
2018-06-08T17:06:11.134Z,24.30
2018-06-08T17:08:39.477Z,24.10
2018-06-08T17:11:07.819Z,24.10
2018-06-08T17:13:36.142Z,24.10
2018-06-08T17:16:04.505Z,23.90
2018-06-08T17:18:32.870Z,24.00
2018-06-08T17:21:01.180Z,24.00
2018-06-08T17:23:29.544Z,23.90
2018-06-08T17:25:57.922Z,24.00
2018-06-08T17:28:26.305Z,23.90
2018-06-08T17:30:54.704Z,24.00
2018-06-08T17:33:23.123Z,24.00
2018-06-08T17:35:51.559Z,24.00
2018-06-08T17:38:19.914Z,23.80
2018-06-08T17:40:48.375Z,23.90
2018-06-08T17:43:16.791Z,23.90
2018-06-08T17:48:13.290Z,23.80
2018-06-08T17:50:41.619Z,23.80
2018-06-08T17:55:38.017Z,23.80
2018-06-08T17:58:06.364Z,23.70
2018-06-08T18:00:34.730Z,23.70
2018-06-08T18:03:03.106Z,23.60
2018-06-08T18:05:31.522Z,23.50
2018-06-08T18:07:59.835Z,23.60
2018-06-08T18:10:28.219Z,23.50
2018-06-08T18:12:56.581Z,23.50
2018-06-08T18:15:24.962Z,23.40
2018-06-08T18:17:53.388Z,23.40
2018-06-08T18:20:21.731Z,23.40
2018-06-08T18:22:50.079Z,23.30
2018-06-08T18:25:18.431Z,23.30
2018-06-08T18:27:46.813Z,23.10
2018-06-08T18:30:15.325Z,23.00
2018-06-08T18:32:43.685Z,23.00
2018-06-08T18:35:12.015Z,23.00
2018-06-08T18:37:40.335Z,23.00
2018-06-08T18:40:08.709Z,23.00
2018-06-08T18:42:37.080Z,23.00
2018-06-08T18:45:05.414Z,22.90
2018-06-08T18:47:33.843Z,22.90
2018-06-08T18:50:02.189Z,22.90
2018-06-08T18:52:30.563Z,22.80
2018-06-08T18:54:59.179Z,22.70
2018-06-08T18:57:27.537Z,22.70
2018-06-08T19:02:23.935Z,22.70
2018-06-08T19:04:52.278Z,22.60
2018-06-08T19:07:20.600Z,22.60
2018-06-08T19:09:48.912Z,22.70
2018-06-08T19:12:17.256Z,22.60
2018-06-08T19:14:45.604Z,22.50
2018-06-08T19:17:13.927Z,22.50
2018-06-08T19:19:42.277Z,22.50
2018-06-08T19:22:10.581Z,22.40
2018-06-08T19:24:38.924Z,22.40
2018-06-08T19:27:07.279Z,22.40
2018-06-08T19:29:35.592Z,22.30
2018-06-08T19:32:04.054Z,22.20
2018-06-08T19:34:32.347Z,22.20
2018-06-08T19:37:00.723Z,22.20
2018-06-08T19:39:29.094Z,22.10
2018-06-08T19:41:57.468Z,22.20
2018-06-08T19:44:25.834Z,22.10
2018-06-08T19:46:54.164Z,22.10
2018-06-08T19:49:22.497Z,22.00
2018-06-08T19:51:50.818Z,22.00
2018-06-08T19:54:19.152Z,21.90
2018-06-08T19:56:48.089Z,21.90
2018-06-08T19:59:17.069Z,21.80
2018-06-08T20:01:45.936Z,21.70
2018-06-08T20:04:14.585Z,21.60
2018-06-08T20:06:43.645Z,21.40
2018-06-08T20:09:12.703Z,21.40
2018-06-08T20:11:42.167Z,21.50
2018-06-08T20:14:11.410Z,21.40
2018-06-08T20:16:40.375Z,21.40
2018-06-08T20:19:09.142Z,21.40
2018-06-08T20:21:38.185Z,21.30
2018-06-08T20:24:07.248Z,21.30
2018-06-08T20:26:36.166Z,21.20
2018-06-08T20:29:04.888Z,21.30
2018-06-08T20:31:33.670Z,21.30
2018-06-08T20:36:31.060Z,21.30
2018-06-08T20:38:59.945Z,21.20
2018-06-08T20:41:28.785Z,21.20
2018-06-08T20:43:57.954Z,21.20
2018-06-08T20:46:27.101Z,21.10
2018-06-08T20:48:55.762Z,21.10
2018-06-08T20:51:24.708Z,21.10
2018-06-08T20:53:53.613Z,21.00
2018-06-08T20:56:22.474Z,21.00
2018-06-08T20:58:51.935Z,21.10
2018-06-08T21:01:20.656Z,21.10
2018-06-08T21:03:49.136Z,21.00
2018-06-08T21:06:17.487Z,21.00
2018-06-08T21:08:45.860Z,20.90
2018-06-08T21:11:14.177Z,20.90
2018-06-08T21:13:42.930Z,21.00
2018-06-08T21:16:11.662Z,20.90
2018-06-08T21:18:40.165Z,21.00
2018-06-08T21:21:08.589Z,21.00
2018-06-08T21:23:36.928Z,21.00
2018-06-08T21:26:05.339Z,21.00
2018-06-08T21:28:33.699Z,21.00
2018-06-08T21:31:02.029Z,21.00
2018-06-08T21:33:30.500Z,20.90
2018-06-08T21:35:58.813Z,21.00
2018-06-08T21:38:27.699Z,21.00
2018-06-08T21:40:56.034Z,21.00
2018-06-08T21:43:24.391Z,20.90
2018-06-08T21:45:52.744Z,20.90
2018-06-08T21:48:21.110Z,20.80
2018-06-08T21:50:49.458Z,20.70
2018-06-08T21:53:17.840Z,20.60
2018-06-08T21:55:46.152Z,20.60
2018-06-08T21:58:14.492Z,20.70
2018-06-08T22:00:42.828Z,20.60
2018-06-08T22:03:11.198Z,20.60
2018-06-08T22:05:39.528Z,20.50
2018-06-08T22:08:07.870Z,20.50
2018-06-08T22:10:36.193Z,20.50
2018-06-08T22:13:04.541Z,20.40
2018-06-08T22:15:32.902Z,20.40
2018-06-08T22:18:01.238Z,20.30
2018-06-08T22:20:29.565Z,20.20
2018-06-08T22:22:57.942Z,20.20
2018-06-08T22:25:26.270Z,20.10
2018-06-08T22:27:54.600Z,20.10
2018-06-08T22:30:22.920Z,20.00
2018-06-08T22:32:52.596Z,19.90
2018-06-08T22:35:20.910Z,19.90
2018-06-08T22:37:49.249Z,19.90
2018-06-08T22:40:17.604Z,19.80
2018-06-08T22:42:45.979Z,19.80
2018-06-08T22:45:14.418Z,19.90
2018-06-08T22:50:10.858Z,19.80
2018-06-08T22:52:39.535Z,19.70
2018-06-08T22:55:07.835Z,19.70
2018-06-08T22:57:36.184Z,19.70
2018-06-08T23:00:05.208Z,19.60
2018-06-08T23:02:33.622Z,19.50
2018-06-08T23:05:01.931Z,19.60
2018-06-08T23:07:30.339Z,19.50
2018-06-08T23:12:26.818Z,19.60
2018-06-08T23:14:55.171Z,19.60
2018-06-08T23:17:23.468Z,19.60
2018-06-08T23:19:51.836Z,19.60
2018-06-08T23:22:20.194Z,19.50
2018-06-08T23:24:48.546Z,19.60
2018-06-08T23:27:16.925Z,19.70
2018-06-08T23:29:45.300Z,19.60
2018-06-08T23:32:13.657Z,19.60
2018-06-08T23:34:41.966Z,19.60
2018-06-08T23:37:10.330Z,19.70
2018-06-08T23:39:38.680Z,19.80
2018-06-08T23:42:07.008Z,19.60
2018-06-08T23:44:35.341Z,19.70
2018-06-08T23:47:03.847Z,19.70
2018-06-08T23:49:32.233Z,19.70
2018-06-08T23:52:00.562Z,19.70
2018-06-08T23:54:28.961Z,19.60
2018-06-08T23:56:57.326Z,19.60
2018-06-08T23:59:25.662Z,19.50
